METAR Data
IDs: Format: Raw Decoded Include TAF

Data at: 1313 UTC 15 Jul 2020

KTAN 151252Z AUTO VRB04KT 10SM OVC013 19/16 A3019 RMK AO2 SLP222 T01890156
KTAN 151152Z AUTO 07005KT 10SM OVC011 19/15 A3017 RMK AO2 SLP215 70001 T01890150 10194 20178 51019
KTAN 151052Z AUTO 00000KT 10SM BKN013 OVC022 19/16 A3016 RMK AO2 SLP212 T01890156
KTAN 151031Z AUTO VRB05KT 10SM SCT009 BKN014 OVC021 18/16 A3016 RMK AO2 T01830156
KTAN 150952Z AUTO VRB04KT 9SM OVC009 18/16 A3014 RMK AO2 SLP205 T01830161
KTAN 150926Z AUTO VRB03KT 10SM BKN009 BKN014 OVC021 19/17 A3013 RMK AO2 CIG 007V010 T01890167
KTAN 150909Z AUTO VRB04KT 10SM FEW009 BKN023 19/17 A3012 RMK AO2 T01890167
KTAN 150852Z AUTO 36003KT 10SM FEW015 BKN023 18/16 A3011 RMK AO2 SLP196 T01830161 53009
KTAN 150811Z AUTO 00000KT 10SM FEW019 BKN029 18/16 A3011 RMK AO2 T01830161
KTAN 150752Z AUTO 00000KT 10SM FEW019 BKN031 18/17 A3010 RMK AO2 SLP192 T01830167
KTAN 150728Z AUTO 00000KT 10SM FEW009 SCT025 18/17 A3010 RMK AO2 T01830167
KTAN 150711Z AUTO 00000KT 10SM FEW010 SCT014 OVC024 19/17 A3009 RMK AO2 T01940167
KTAN 150652Z AUTO 36003KT 10SM BKN012 OVC023 19/17 A3009 RMK AO2 SLP190 T01940167
KTAN 150635Z AUTO 00000KT 10SM BKN013 BKN018 OVC023 19/17 A3009 RMK AO2 T01940167
KTAN 150552Z AUTO 00000KT 10SM OVC025 19/17 A3009 RMK AO2 SLP187 T01940167 10217 20189 51003
KTAN 150452Z AUTO 00000KT 10SM BKN020 19/17 A3009 RMK AO2 SLP187 T01940167 402780172
KTAN 150435Z AUTO 00000KT 10SM SCT022 19/17 A3009 RMK AO2 T01890167
KTAN 150352Z AUTO VRB03KT 10SM OVC018 20/17 A3008 RMK AO2 SLP186 T02000167
KTAN 150252Z AUTO VRB04KT 10SM OVC016 20/17 A3008 RMK AO2 SLP184 T02000167 51017
KTAN 150152Z AUTO VRB03KT 10SM OVC016 21/17 A3007 RMK AO2 SLP180 T02060167
KTAN 150123Z AUTO VRB03KT 10SM OVC016 21/17 A3005 RMK AO2 T02060172
KTAN 150116Z AUTO VRB05KT 10SM BKN014 OVC022 21/17 A3005 RMK AO2 T02060172
KTAN 150052Z AUTO VRB04KT 10SM OVC015 21/17 A3004 RMK AO2 SLP173 T02060172
KTAN 142352Z AUTO VRB03KT 10SM BKN018 OVC110 22/18 A3003 RMK AO2 RAE20 SLP166 P0001 60001 T02170183 10278 20217 51017
KTAN 142350Z AUTO 00000KT 10SM BKN018 OVC110 22/18 A3002 RMK AO2 RAE20 P0001
KTAN 142252Z AUTO 01004KT 10SM -RA SCT036 BKN048 OVC110 22/17 A3000 RMK AO2 LTG DSNT W RAB43 SLP157 P0000 T02220172
KTAN 142152Z AUTO VRB03KT 10SM FEW031 SCT095 BKN120 23/17 A2997 RMK AO2 LTG DSNT N SLP149 T02330172
KTAN 142052Z AUTO 08005KT 10SM CLR 24/18 A2996 RMK AO2 RAE05 SLP143 P0000 60000 T02440178 53012
KTAN 141952Z AUTO 08003KT 10SM -RA FEW060 BKN095 BKN110 23/19 A2994 RMK AO2 LTG DSNT SE-W RAB03 SLP138 P0000 T02280189
KTAN 141902Z AUTO VRB03KT 10SM FEW060 BKN110 24/18 A2993 RMK AO2 LTG DSNT S AND SW T02440178
KTAN 141852Z AUTO VRB03KT 10SM VCTS FEW120 25/18 A2993 RMK AO2 LTG DSNT S-W PRESRR SLP133 T02500178
KTAN 141847Z AUTO VRB04KT 10SM VCTS CLR 25/18 A2992 RMK AO2 LTG DSNT SW AND W
KTAN 141752Z AUTO VRB05KT 10SM FEW024 SCT120 27/19 A2991 RMK AO2 LTG DSNT W AND NW SLP128 T02670189 10272 20233 51009
KTAN 141710Z AUTO 07006KT 10SM SCT024 BKN042 BKN110 27/20 A2991 RMK AO2 T02670200
KTAN 141652Z AUTO 09007KT 10SM SCT022 BKN027 OVC041 26/19 A2990 RMK AO2 LTG DSNT SE AND S SLP125 T02560194
KTAN 141637Z AUTO 02005KT 10SM BKN022 BKN031 BKN060 27/20 A2990 RMK AO2 T02670200
KTAN 141615Z AUTO 02007KT 360V070 10SM FEW020 BKN039 BKN047 27/20 A2990 RMK AO2 LTG DSNT E AND SE T02720200
KTAN 141600Z AUTO VRB06KT 10SM VCTS FEW020 BKN039 BKN045 26/19 A2990 RMK AO2 LTG DSNT ALQDS T02610194
KTAN 141552Z AUTO VRB04KT 10SM FEW020 FEW027 BKN039 26/19 A2990 RMK AO2 LTG DSNT ALQDS SLP125 T02610194
KTAN 141538Z AUTO VRB05KT 10SM VCTS SCT027 BKN041 26/20 A2990 RMK AO2 LTG DSNT SE AND S T02610200
KTAN 141502Z AUTO 33007KT 10SM VCTS SCT019 OVC028 25/19 A2989 RMK AO2 LTG DSNT S T02500194
KTAN 141452Z AUTO VRB03KT 10SM FEW019 BKN026 OVC032 26/19 A2989 RMK AO2 LTG DSNT S SLP119 T02560194 51011
KTAN 141352Z AUTO 36003KT 10SM BKN017 OVC024 25/20 A2988 RMK AO2 SLP118 T02500200
KTAN 141312Z AUTO 34003KT 10SM BKN018 25/20 A2987 RMK AO2 T02500200
KTAN 141252Z AUTO VRB03KT 10SM FEW014 BKN075 25/20 A2986 RMK AO2 SLP112 T02500200
KTAN 141152Z AUTO 00000KT 10SM SCT006 23/20 A2985 RMK AO2 SLP108 T02330200 10233 20172 51013
KTAN 141113Z AUTO VRB03KT 10SM BKN006 22/19 A2985 RMK AO2 T02170194
KTAN 141104Z AUTO 00000KT 9SM SCT005 22/19 A2985 RMK AO2 T02170194
KTAN 141052Z AUTO 00000KT 9SM CLR 21/19 A2984 RMK AO2 SLP104 T02060194
KTAN 141004Z AUTO 00000KT 3SM BR SCT005 18/17 A2983 RMK AO2 T01830172
KTAN 141001Z AUTO 00000KT 1 1/2SM BR SCT005 18/17 A2983 RMK AO2 T01780167
KTAN 140952Z AUTO 00000KT 1/4SM FG VV005 17/16 A2983 RMK AO2 SLP100 T01720161
KTAN 140923Z AUTO 00000KT 1/4SM FG VV005 18/16 A2982 RMK AO2 T01780161
KTAN 140913Z AUTO 00000KT 3/4SM BR CLR 17/16 A2982 RMK AO2 VIS 1/2V3 T01720161
KTAN 140910Z AUTO 00000KT 1 1/2SM BR CLR 17/16 A2982 RMK AO2 VIS 1/2V4 T01720161
KTAN 140905Z AUTO 00000KT 4SM BR CLR 18/16 A2982 RMK AO2 T01780161
KTAN 140856Z AUTO 00000KT 2SM BR CLR 17/16 A2982 RMK AO2 T01720161
KTAN 140852Z AUTO 00000KT 1 1/4SM BR CLR 17/16 A2982 RMK AO2 SLP095 T01720161 53002
KTAN 140842Z AUTO 00000KT 1SM BR CLR 18/17 A2981 RMK AO2 T01780167
KTAN 140833Z AUTO 00000KT 1SM BR VV005 17/16 A2981 RMK AO2 T01720161
KTAN 140830Z AUTO 00000KT 1 1/2SM BR FEW005 17/16 A2981 RMK AO2 VIS 1/2V3 T01720161
KTAN 140822Z AUTO 00000KT 2SM BR SCT004 18/17 A2981 RMK AO2 T01780167
KTAN 140818Z AUTO 00000KT 1 1/4SM BR SCT004 18/17 A2981 RMK AO2 T01780167
KTAN 140752Z AUTO 00000KT 1/4SM FG VV004 18/17 A2980 RMK AO2 SLP089 T01780167
KTAN 140723Z AUTO 00000KT 1/4SM FG VV003 18/17 A2980 RMK AO2 T01830167
KTAN 140704Z AUTO 00000KT 3/4SM BR CLR 18/17 A2979 RMK AO2 T01830172
KTAN 140652Z AUTO 00000KT 1 1/2SM BR FEW003 SCT075 19/18 A2980 RMK AO2 SLP089 T01890178
KTAN 140644Z AUTO 00000KT 2SM BR FEW003 19/18 A2980 RMK AO2 VIS 1 1/4V3 T01890178
KTAN 140641Z AUTO 00000KT 1 1/4SM BR SCT003 19/18 A2980 RMK AO2 T01890178
KTAN 140629Z AUTO 00000KT 3/4SM BR VV002 19/17 A2980 RMK AO2 VIS 1/4V4 T01890172
KTAN 140627Z AUTO 00000KT 1 1/2SM BR CLR 19/18 A2980 RMK AO2 VIS 1/2V4 T01890178
KTAN 140552Z AUTO 00000KT 4SM BR SCT085 20/18 A2981 RMK AO2 SLP093 T02000183 10261 20194 55002
KTAN 140518Z AUTO 32003KT 5SM BR FEW007 21/19 A2981 RMK AO2 T02060189
KTAN 140452Z AUTO 00000KT 7SM CLR 21/19 A2980 RMK AO2 SLP089 T02060189 403170200
KTAN 140352Z AUTO 00000KT 5SM BR CLR 20/18 A2981 RMK AO2 SLP094 T02000183
KTAN 140252Z AUTO 14003KT 9SM CLR 21/19 A2982 RMK AO2 SLP096 T02110194 53010
KTAN 140152Z AUTO 00000KT 10SM CLR 22/20 A2980 RMK AO2 SLP091 T02220200